createdAt,value
2019-05-10T00:01:09.549Z,0
2019-05-10T00:02:19.554Z,0
2019-05-10T00:03:29.551Z,0
2019-05-10T00:04:39.034Z,0
2019-05-10T00:05:48.993Z,0
2019-05-10T00:06:58.698Z,0
2019-05-10T00:08:08.655Z,0
2019-05-10T00:09:18.619Z,0
2019-05-10T00:10:28.579Z,0
2019-05-10T00:11:38.072Z,0
2019-05-10T00:12:48.025Z,0
2019-05-10T00:13:57.760Z,0
2019-05-10T00:15:07.534Z,0
2019-05-10T00:16:17.559Z,0
2019-05-10T00:17:27.535Z,0
2019-05-10T00:18:37.505Z,0
2019-05-10T00:19:47.297Z,0
2019-05-10T00:20:57.263Z,0
2019-05-10T00:22:06.723Z,0
2019-05-10T00:23:16.680Z,0
2019-05-10T00:24:26.648Z,0
2019-05-10T00:25:36.641Z,0
2019-05-10T00:26:46.114Z,0
2019-05-10T00:27:55.866Z,0
2019-05-10T00:29:05.557Z,0
2019-05-10T00:30:15.521Z,0
2019-05-10T00:31:25.471Z,0
2019-05-10T00:32:35.184Z,0
2019-05-10T00:33:44.877Z,0
2019-05-10T00:34:54.575Z,0
2019-05-10T00:36:04.539Z,0
2019-05-10T00:37:14.254Z,0
2019-05-10T00:38:24.226Z,0
2019-05-10T00:39:33.932Z,0
2019-05-10T00:40:43.647Z,0
2019-05-10T00:41:53.600Z,0
2019-05-10T00:43:03.320Z,0
2019-05-10T00:44:13.284Z,0
2019-05-10T00:45:23.241Z,0
2019-05-10T00:46:33.205Z,0
2019-05-10T00:47:43.189Z,0
2019-05-10T00:48:52.903Z,0
2019-05-10T00:50:02.869Z,0
2019-05-10T00:51:12.641Z,0
2019-05-10T00:52:22.587Z,0
2019-05-10T00:53:32.541Z,0
2019-05-10T00:54:42.260Z,0
2019-05-10T00:55:51.968Z,0
2019-05-10T00:57:01.687Z,0
2019-05-10T00:58:11.677Z,0
2019-05-10T00:59:21.643Z,0
2019-05-10T01:00:31.596Z,0
2019-05-10T01:01:40.830Z,0
2019-05-10T01:02:50.805Z,0
2019-05-10T01:04:00.813Z,0
2019-05-10T01:05:10.785Z,0
2019-05-10T01:06:20.767Z,0
2019-05-10T01:07:30.740Z,0
2019-05-10T01:08:40.701Z,0
2019-05-10T01:09:50.405Z,0
2019-05-10T01:11:00.370Z,0
2019-05-10T01:12:10.343Z,0
2019-05-10T01:13:20.317Z,0
2019-05-10T01:14:30.272Z,0
2019-05-10T01:15:40.243Z,0
2019-05-10T01:16:49.960Z,0
2019-05-10T01:17:59.933Z,0
2019-05-10T01:19:09.884Z,0
2019-05-10T01:20:19.922Z,0
2019-05-10T01:21:29.892Z,0
2019-05-10T01:22:40.095Z,0
2019-05-10T01:23:49.805Z,0
2019-05-10T01:24:59.506Z,0
2019-05-10T01:26:09.472Z,0
2019-05-10T01:27:19.584Z,0
2019-05-10T01:28:29.553Z,0
2019-05-10T01:29:39.285Z,0
2019-05-10T01:30:48.979Z,0
2019-05-10T01:31:58.452Z,0
2019-05-10T01:33:08.480Z,0
2019-05-10T01:34:18.469Z,0
2019-05-10T01:35:28.433Z,0
2019-05-10T01:36:38.203Z,0
2019-05-10T01:37:48.175Z,0
2019-05-10T01:38:58.167Z,0
2019-05-10T01:40:08.141Z,0
2019-05-10T01:41:17.835Z,0
2019-05-10T01:42:27.818Z,0
2019-05-10T01:43:37.775Z,0
2019-05-10T01:44:47.727Z,0
2019-05-10T01:45:57.513Z,0
2019-05-10T01:47:07.470Z,0
2019-05-10T01:48:17.191Z,0
2019-05-10T01:49:27.245Z,0
2019-05-10T01:50:37.216Z,0
2019-05-10T01:51:46.688Z,0
2019-05-10T01:52:56.658Z,0
2019-05-10T01:54:06.657Z,0
2019-05-10T01:55:16.731Z,0
2019-05-10T01:56:26.706Z,0
2019-05-10T01:57:36.421Z,0
2019-05-10T01:58:46.405Z,0
2019-05-10T01:59:56.350Z,0
2019-05-10T02:01:06.405Z,0
2019-05-10T02:02:16.378Z,0
2019-05-10T02:03:25.842Z,0
2019-05-10T02:04:35.808Z,0
2019-05-10T02:05:45.619Z,0
2019-05-10T02:06:55.585Z,0
2019-05-10T02:08:05.324Z,0
2019-05-10T02:09:15.045Z,0
2019-05-10T02:10:25.027Z,0
2019-05-10T02:11:34.991Z,0
2019-05-10T02:12:44.704Z,0
2019-05-10T02:13:54.659Z,0
2019-05-10T02:15:04.136Z,0
2019-05-10T02:16:13.891Z,0
2019-05-10T02:17:23.611Z,0
2019-05-10T02:18:33.654Z,0
2019-05-10T02:19:43.370Z,0
2019-05-10T02:20:53.405Z,0
2019-05-10T02:22:03.395Z,0
2019-05-10T02:23:13.136Z,0
2019-05-10T02:24:23.108Z,0
2019-05-10T02:25:33.059Z,0
2019-05-10T02:26:42.767Z,0
2019-05-10T02:27:52.745Z,0
2019-05-10T02:29:02.759Z,0
2019-05-10T02:30:12.760Z,0
2019-05-10T02:31:26.445Z,0
2019-05-10T02:32:36.401Z,0
2019-05-10T02:33:46.388Z,0
2019-05-10T02:34:56.390Z,0
2019-05-10T02:36:06.378Z,0
2019-05-10T02:37:16.476Z,0
2019-05-10T02:38:26.515Z,0
2019-05-10T02:39:36.547Z,0
2019-05-10T02:40:46.528Z,0
2019-05-10T02:41:56.262Z,0
2019-05-10T02:43:06.312Z,0
2019-05-10T02:44:16.310Z,0
2019-05-10T02:45:26.019Z,0
2019-05-10T02:46:35.738Z,0
2019-05-10T02:47:45.497Z,0
2019-05-10T02:48:55.532Z,0
2019-05-10T02:50:08.428Z,0
2019-05-10T02:51:18.183Z,0
2019-05-10T02:52:27.900Z,0
2019-05-10T02:53:37.867Z,0
2019-05-10T02:54:47.584Z,0
2019-05-10T02:55:57.545Z,0
2019-05-10T02:57:07.270Z,0
2019-05-10T02:58:21.812Z,0
2019-05-10T02:59:31.514Z,0
2019-05-10T03:00:40.997Z,0
2019-05-10T03:01:50.963Z,0
2019-05-10T03:03:00.680Z,0
2019-05-10T03:04:10.643Z,0
2019-05-10T03:05:20.136Z,0
2019-05-10T03:06:29.845Z,0
2019-05-10T03:07:39.368Z,0
2019-05-10T03:08:49.332Z,0
2019-05-10T03:09:59.049Z,0
2019-05-10T03:11:09.019Z,0
2019-05-10T03:12:18.242Z,0
2019-05-10T03:13:31.916Z,0
2019-05-10T03:14:41.470Z,0
2019-05-10T03:15:51.290Z,0
2019-05-10T03:17:00.777Z,0
2019-05-10T03:18:10.848Z,0
2019-05-10T03:19:20.832Z,0
2019-05-10T03:20:30.798Z,0
2019-05-10T03:21:40.283Z,0
2019-05-10T03:22:50.387Z,0
2019-05-10T03:24:00.150Z,0
2019-05-10T03:25:10.136Z,0
2019-05-10T03:26:20.097Z,0
2019-05-10T03:27:30.095Z,0
2019-05-10T03:28:40.117Z,5
2019-05-10T03:29:50.112Z,5
2019-05-10T03:30:59.892Z,5
2019-05-10T03:32:09.910Z,5
2019-05-10T03:33:19.947Z,5
2019-05-10T03:34:29.983Z,5
2019-05-10T03:35:39.521Z,5
2019-05-10T03:36:49.018Z,5
2019-05-10T03:37:58.772Z,10
2019-05-10T03:39:08.731Z,10
2019-05-10T03:40:18.475Z,10
2019-05-10T03:41:28.462Z,10
2019-05-10T03:42:38.431Z,15
2019-05-10T03:43:48.407Z,15
2019-05-10T03:44:58.138Z,15
2019-05-10T03:46:07.747Z,20
2019-05-10T03:47:17.725Z,20
2019-05-10T03:48:27.194Z,20
2019-05-10T03:49:37.192Z,20
2019-05-10T03:50:47.043Z,25
2019-05-10T03:51:56.777Z,25
2019-05-10T03:53:06.490Z,25
2019-05-10T03:54:16.211Z,25
2019-05-10T03:55:25.932Z,25
2019-05-10T03:56:37.338Z,25
2019-05-10T03:57:47.308Z,30
2019-05-10T03:58:57.305Z,30
2019-05-10T04:00:07.308Z,30
2019-05-10T04:01:17.532Z,30
2019-05-10T04:02:27.273Z,30
2019-05-10T04:03:37.235Z,30
2019-05-10T04:04:47.027Z,35
2019-05-10T04:05:56.285Z,35
2019-05-10T04:07:06.310Z,35
2019-05-10T04:08:16.060Z,35
2019-05-10T04:09:25.807Z,35
2019-05-10T04:10:35.773Z,40
2019-05-10T04:11:45.745Z,40
2019-05-10T04:12:55.857Z,40
2019-05-10T04:14:05.102Z,40
2019-05-10T04:15:15.079Z,40
2019-05-10T04:16:25.053Z,40
2019-05-10T04:17:34.756Z,40
2019-05-10T04:18:44.244Z,40
2019-05-10T04:19:54.002Z,40
2019-05-10T04:21:03.982Z,40
2019-05-10T04:22:13.960Z,40
2019-05-10T04:23:23.936Z,40
2019-05-10T04:24:38.594Z,35
2019-05-10T04:25:48.566Z,35
2019-05-10T04:26:58.552Z,35
2019-05-10T04:28:08.410Z,35
2019-05-10T04:29:18.408Z,35
2019-05-10T04:30:31.612Z,35
2019-05-10T04:31:41.767Z,35
2019-05-10T04:32:51.491Z,35
2019-05-10T04:34:01.579Z,35
2019-05-10T04:35:11.558Z,40
2019-05-10T04:36:22.603Z,40
2019-05-10T04:37:32.594Z,40
2019-05-10T04:38:42.157Z,45
2019-05-10T04:39:51.917Z,45
2019-05-10T04:41:01.886Z,45
2019-05-10T04:42:11.757Z,45
2019-05-10T04:43:21.245Z,45
2019-05-10T04:44:31.392Z,45
2019-05-10T04:45:41.130Z,45
2019-05-10T04:46:51.157Z,45
2019-05-10T04:48:01.179Z,50
2019-05-10T04:49:10.932Z,50
2019-05-10T04:50:20.681Z,50
2019-05-10T04:51:30.658Z,50
2019-05-10T04:52:40.637Z,50
2019-05-10T04:53:50.616Z,50
2019-05-10T04:55:00.601Z,50
2019-05-10T04:56:10.087Z,50
2019-05-10T04:57:20.053Z,55
2019-05-10T04:58:30.030Z,55
2019-05-10T04:59:39.764Z,55
2019-05-10T05:00:49.495Z,55
2019-05-10T05:01:59.493Z,55
2019-05-10T05:03:09.512Z,60
2019-05-10T05:04:19.249Z,60
2019-05-10T05:05:29.237Z,65
2019-05-10T05:06:39.018Z,70
2019-05-10T05:07:48.732Z,70
2019-05-10T05:08:58.816Z,75
2019-05-10T05:10:08.522Z,80
2019-05-10T05:11:18.588Z,85
2019-05-10T05:12:28.566Z,85
2019-05-10T05:13:38.605Z,90
2019-05-10T05:14:48.578Z,95
2019-05-10T05:15:58.581Z,100
2019-05-10T05:17:08.542Z,105
2019-05-10T05:18:18.286Z,110
2019-05-10T05:19:27.754Z,110
2019-05-10T05:20:37.227Z,115
2019-05-10T05:21:46.977Z,115
2019-05-10T05:22:56.956Z,120
2019-05-10T05:24:06.936Z,125
2019-05-10T05:25:16.649Z,125
2019-05-10T05:26:26.371Z,125
2019-05-10T05:27:36.103Z,125
2019-05-10T05:28:45.817Z,125
2019-05-10T05:29:55.786Z,125
2019-05-10T05:31:05.489Z,125
2019-05-10T05:32:18.032Z,130
2019-05-10T05:33:27.763Z,130
2019-05-10T05:34:37.732Z,135
2019-05-10T05:35:47.189Z,145
2019-05-10T05:36:57.148Z,150
2019-05-10T05:38:07.147Z,160
2019-05-10T05:39:17.157Z,170
2019-05-10T05:40:27.171Z,175
2019-05-10T05:41:56.526Z,190
2019-05-10T05:43:13.173Z,200
2019-05-10T05:44:31.284Z,215
2019-05-10T05:45:43.779Z,225
2019-05-10T05:46:53.258Z,230
2019-05-10T05:48:03.276Z,240
2019-05-10T05:49:12.987Z,245
2019-05-10T05:50:22.995Z,250
2019-05-10T05:51:33.117Z,250
2019-05-10T05:52:43.044Z,255
2019-05-10T05:53:54.688Z,265
2019-05-10T05:55:07.259Z,265
2019-05-10T05:56:22.732Z,270
2019-05-10T05:57:37.215Z,265
2019-05-10T05:58:54.343Z,270
2019-05-10T06:00:13.717Z,270
2019-05-10T06:01:36.876Z,270
2019-05-10T06:02:54.081Z,275
2019-05-10T06:04:15.060Z,270
2019-05-10T06:05:44.325Z,265
2019-05-10T06:07:01.784Z,265
2019-05-10T06:08:32.558Z,260
2019-05-10T06:09:47.250Z,255
2019-05-10T06:11:11.340Z,255
2019-05-10T06:12:22.309Z,250
2019-05-10T06:13:37.831Z,250
2019-05-10T06:14:57.286Z,245
2019-05-10T06:16:22.169Z,245
2019-05-10T06:17:36.732Z,245
2019-05-10T06:18:54.927Z,245
2019-05-10T06:20:12.716Z,240
2019-05-10T06:21:33.779Z,240
2019-05-10T06:23:11.005Z,245
2019-05-10T06:24:23.260Z,250
2019-05-10T06:25:50.123Z,255
2019-05-10T06:27:06.013Z,255
2019-05-10T06:29:19.841Z,260
2019-05-10T06:30:30.886Z,260
2019-05-10T06:31:40.877Z,255
2019-05-10T06:33:11.612Z,250
2019-05-10T06:34:22.144Z,250
2019-05-10T06:35:31.905Z,255
2019-05-10T06:36:41.699Z,255
2019-05-10T06:37:51.419Z,255
2019-05-10T06:39:01.164Z,260
2019-05-10T06:40:10.919Z,275
2019-05-10T06:41:26.655Z,265
2019-05-10T06:42:42.967Z,265
2019-05-10T06:43:58.957Z,265
2019-05-10T06:45:23.228Z,270
2019-05-10T06:46:38.573Z,275
2019-05-10T06:47:58.004Z,280
2019-05-10T06:49:18.198Z,285
2019-05-10T06:50:39.158Z,290
2019-05-10T06:51:56.434Z,295
2019-05-10T06:53:18.370Z,300
2019-05-10T06:54:28.390Z,300
2019-05-10T06:55:38.159Z,305
2019-05-10T06:56:48.128Z,305
2019-05-10T06:58:07.999Z,305
2019-05-10T06:59:30.053Z,325
2019-05-10T07:00:50.060Z,310
2019-05-10T07:02:01.791Z,315
2019-05-10T07:03:11.529Z,315
2019-05-10T07:04:21.305Z,320
2019-05-10T07:05:31.032Z,325
2019-05-10T07:06:41.057Z,335
2019-05-10T07:07:59.429Z,330
2019-05-10T07:09:17.081Z,330
2019-05-10T07:10:36.314Z,335
2019-05-10T07:11:46.288Z,340
2019-05-10T07:13:09.237Z,345
2019-05-10T07:14:25.301Z,350
2019-05-10T07:15:47.325Z,350
2019-05-10T07:17:05.330Z,355
2019-05-10T07:18:22.452Z,345
2019-05-10T07:19:53.384Z,340
2019-05-10T07:21:12.005Z,340
2019-05-10T07:22:29.864Z,340
2019-05-10T07:23:48.847Z,340
2019-05-10T07:25:12.469Z,335
2019-05-10T07:26:31.908Z,325
2019-05-10T07:27:50.066Z,310
2019-05-10T07:29:04.964Z,305
2019-05-10T07:30:14.703Z,290
2019-05-10T07:31:28.170Z,290
2019-05-10T07:32:38.170Z,290
2019-05-10T07:33:49.760Z,305
2019-05-10T07:35:09.958Z,320
2019-05-10T07:36:34.144Z,345
2019-05-10T07:37:47.557Z,350
2019-05-10T07:38:57.545Z,365
2019-05-10T07:40:12.956Z,375
2019-05-10T07:41:33.760Z,380
2019-05-10T07:42:50.455Z,385
2019-05-10T07:44:10.829Z,385
2019-05-10T07:45:28.356Z,390
2019-05-10T07:46:46.373Z,395
2019-05-10T07:48:02.256Z,395
2019-05-10T07:49:12.462Z,395
2019-05-10T07:50:22.183Z,390
2019-05-10T07:51:37.640Z,390
2019-05-10T07:52:53.618Z,395
2019-05-10T07:54:13.841Z,400
2019-05-10T07:55:36.419Z,415
2019-05-10T07:56:53.305Z,415
2019-05-10T07:58:12.448Z,415
2019-05-10T07:59:52.277Z,425
2019-05-10T08:01:05.594Z,435
2019-05-10T08:02:22.352Z,445
2019-05-10T08:03:41.621Z,455
2019-05-10T08:05:04.772Z,455
2019-05-10T08:06:19.338Z,460
2019-05-10T08:07:31.746Z,465
2019-05-10T08:08:43.975Z,460
2019-05-10T08:09:56.009Z,460
2019-05-10T08:11:08.531Z,445
2019-05-10T08:12:24.306Z,440
2019-05-10T08:13:35.659Z,425
2019-05-10T08:14:54.478Z,420
2019-05-10T08:16:20.120Z,430
2019-05-10T08:17:40.881Z,430
2019-05-10T08:19:03.639Z,435
2019-05-10T08:21:03.110Z,425
2019-05-10T08:22:25.171Z,445
2019-05-10T08:23:37.738Z,470
2019-05-10T08:25:02.259Z,485
2019-05-10T08:26:27.255Z,500
2019-05-10T08:27:50.379Z,475
2019-05-10T08:29:07.479Z,465
2019-05-10T08:30:42.275Z,465
2019-05-10T08:32:05.467Z,480
2019-05-10T08:33:22.860Z,490
2019-05-10T08:34:51.515Z,495
2019-05-10T08:36:14.608Z,510
2019-05-10T08:37:45.626Z,500
2019-05-10T08:39:18.885Z,475
2019-05-10T08:40:45.122Z,475
2019-05-10T08:42:49.811Z,460
2019-05-10T08:44:23.892Z,430
2019-05-10T08:45:38.613Z,445
2019-05-10T08:46:52.459Z,455
2019-05-10T08:48:15.262Z,480
2019-05-10T08:50:28.666Z,510
2019-05-10T08:51:57.129Z,500
2019-05-10T08:53:25.571Z,550
2019-05-10T08:54:37.679Z,495
2019-05-10T08:55:52.428Z,500
2019-05-10T08:57:22.222Z,500
2019-05-10T08:58:47.067Z,595
2019-05-10T09:00:15.596Z,575
2019-05-10T09:01:55.542Z,425
2019-05-10T09:03:27.586Z,305
2019-05-10T09:04:57.747Z,280
2019-05-10T09:06:24.287Z,255
2019-05-10T09:07:42.881Z,255
2019-05-10T09:09:12.489Z,270
2019-05-10T09:10:24.534Z,285
2019-05-10T09:11:35.283Z,300
2019-05-10T09:13:05.644Z,325
2019-05-10T09:14:28.694Z,340
2019-05-10T09:15:54.224Z,365
2019-05-10T09:17:23.372Z,405
2019-05-10T09:18:43.906Z,420
2019-05-10T09:19:59.053Z,430
2019-05-10T09:21:22.302Z,450
2019-05-10T09:22:47.255Z,460
2019-05-10T09:24:15.266Z,485
2019-05-10T09:25:36.083Z,535
2019-05-10T09:26:52.641Z,565
2019-05-10T09:28:21.827Z,615
2019-05-10T09:29:40.569Z,670
2019-05-10T09:31:28.262Z,635
2019-05-10T09:32:43.387Z,590
2019-05-10T09:34:02.378Z,460
2019-05-10T09:35:22.152Z,365
2019-05-10T09:36:48.812Z,350
2019-05-10T09:38:09.005Z,295
2019-05-10T09:39:34.512Z,280
2019-05-10T09:41:02.406Z,295
2019-05-10T09:42:45.778Z,290
2019-05-10T09:44:02.983Z,275
2019-05-10T09:45:17.719Z,260
2019-05-10T09:46:32.200Z,230
2019-05-10T09:47:45.718Z,225
2019-05-10T09:49:22.965Z,220
2019-05-10T09:50:52.673Z,215
2019-05-10T09:52:20.968Z,215
2019-05-10T09:53:40.526Z,220
2019-05-10T09:54:54.212Z,235
2019-05-10T09:56:12.740Z,260
2019-05-10T09:57:24.662Z,290
2019-05-10T09:58:38.161Z,320
2019-05-10T09:59:49.496Z,350
2019-05-10T10:01:23.132Z,395
2019-05-10T10:02:47.587Z,435
2019-05-10T10:04:02.258Z,470
2019-05-10T10:05:14.561Z,515
2019-05-10T10:06:24.295Z,555
2019-05-10T10:07:44.634Z,595
2019-05-10T10:09:03.446Z,625
2019-05-10T10:10:29.982Z,655
2019-05-10T10:11:45.979Z,685
2019-05-10T10:13:50.013Z,685
2019-05-10T10:15:15.389Z,840
2019-05-10T10:16:30.655Z,680
2019-05-10T10:17:47.689Z,660
2019-05-10T10:18:57.485Z,635
2019-05-10T10:20:08.331Z,635
2019-05-10T10:21:40.218Z,650
2019-05-10T10:23:00.311Z,680
2019-05-10T10:24:24.281Z,650
2019-05-10T10:25:48.062Z,495
2019-05-10T10:27:07.398Z,305
2019-05-10T10:28:31.032Z,215
2019-05-10T10:29:47.434Z,175
2019-05-10T10:31:32.994Z,155
2019-05-10T10:32:47.680Z,160
2019-05-10T10:34:12.437Z,195
2019-05-10T10:35:33.868Z,250
2019-05-10T10:36:52.390Z,310
2019-05-10T10:38:12.779Z,360
2019-05-10T10:39:30.150Z,405
2019-05-10T10:40:51.820Z,445
2019-05-10T10:42:13.668Z,465
2019-05-10T10:43:27.147Z,475
2019-05-10T10:44:39.519Z,475
2019-05-10T10:45:48.961Z,465
2019-05-10T10:47:00.641Z,445
2019-05-10T10:48:22.129Z,415
2019-05-10T10:49:40.203Z,400
2019-05-10T10:51:03.278Z,415
2019-05-10T10:52:19.701Z,435
2019-05-10T10:53:30.720Z,435
2019-05-10T10:54:47.889Z,435
2019-05-10T10:56:12.549Z,445
2019-05-10T10:57:24.900Z,455
2019-05-10T10:58:37.136Z,445
2019-05-10T10:59:47.428Z,450
2019-05-10T11:00:57.867Z,470
2019-05-10T11:02:46.726Z,500
2019-05-10T11:04:03.405Z,540
2019-05-10T11:05:16.865Z,560
2019-05-10T11:06:26.587Z,600
2019-05-10T11:07:47.963Z,665
2019-05-10T11:08:59.051Z,910
2019-05-10T11:10:26.961Z,770
2019-05-10T11:11:54.049Z,650
2019-05-10T11:13:43.735Z,630
2019-05-10T11:14:55.196Z,630
2019-05-10T11:16:23.131Z,635
2019-05-10T11:17:35.545Z,660
2019-05-10T11:18:46.723Z,700
2019-05-10T11:19:56.686Z,780
2019-05-10T11:21:11.255Z,695
2019-05-10T11:22:21.534Z,685
2019-05-10T11:23:46.906Z,685
2019-05-10T11:25:17.767Z,565
2019-05-10T11:26:40.684Z,530
2019-05-10T11:28:01.843Z,490
2019-05-10T11:29:22.863Z,465
2019-05-10T11:30:37.460Z,435
2019-05-10T11:32:14.605Z,425
2019-05-10T11:33:47.150Z,410
2019-05-10T11:34:57.441Z,400
2019-05-10T11:36:20.925Z,400
2019-05-10T11:37:50.601Z,395
2019-05-10T11:39:32.842Z,400
2019-05-10T11:40:46.748Z,430
2019-05-10T11:42:18.033Z,500
2019-05-10T11:43:36.216Z,555
2019-05-10T11:45:03.219Z,625
2019-05-10T11:46:14.205Z,685
2019-05-10T11:47:38.108Z,755
2019-05-10T11:48:53.473Z,815
2019-05-10T11:50:10.593Z,860
2019-05-10T11:51:28.410Z,980
2019-05-10T11:54:46.463Z,1090
2019-05-10T11:56:01.756Z,1290
2019-05-10T11:57:24.278Z,1155
2019-05-10T12:00:36.904Z,1805
2019-05-10T12:03:51.148Z,1450
2019-05-10T12:05:26.219Z,2190
2019-05-10T12:06:51.626Z,1490
2019-05-10T12:08:06.885Z,1025
2019-05-10T12:09:21.233Z,1235
2019-05-10T12:10:42.337Z,935
2019-05-10T12:12:12.149Z,810
2019-05-10T12:13:35.090Z,855
2019-05-10T12:14:53.922Z,1685
2019-05-10T12:16:04.071Z,2050
2019-05-10T12:17:26.244Z,715
2019-05-10T12:21:11.250Z,235
2019-05-10T12:24:53.642Z,120
2019-05-10T12:27:54.076Z,105
2019-05-10T12:29:23.746Z,120
2019-05-10T12:30:40.849Z,140
2019-05-10T12:31:59.942Z,165
2019-05-10T12:33:34.154Z,215
2019-05-10T12:34:51.658Z,255
2019-05-10T12:36:03.544Z,300
2019-05-10T12:37:19.834Z,345
2019-05-10T12:38:40.991Z,395
2019-05-10T12:39:52.741Z,450
2019-05-10T12:41:05.475Z,485
2019-05-10T12:42:23.901Z,520
2019-05-10T12:43:35.449Z,565
2019-05-10T12:44:58.174Z,395
2019-05-10T12:46:10.326Z,350
2019-05-10T12:47:21.406Z,325
2019-05-10T12:48:35.824Z,310
2019-05-10T12:49:48.141Z,315
2019-05-10T12:51:16.095Z,330
2019-05-10T12:52:34.358Z,325
2019-05-10T12:53:54.764Z,300
2019-05-10T12:55:04.481Z,290
2019-05-10T12:56:13.976Z,300
2019-05-10T12:57:23.950Z,315
2019-05-10T12:58:33.163Z,320
2019-05-10T12:59:44.548Z,320
2019-05-10T13:01:03.841Z,305
2019-05-10T13:02:20.456Z,280
2019-05-10T13:03:41.044Z,255
2019-05-10T13:04:57.302Z,240
2019-05-10T13:06:07.016Z,240
2019-05-10T13:07:16.976Z,235
2019-05-10T13:08:26.765Z,230
2019-05-10T13:10:01.074Z,225
2019-05-10T13:11:12.796Z,225
2019-05-10T13:12:22.264Z,230
2019-05-10T13:13:38.795Z,230
2019-05-10T13:14:59.387Z,235
2019-05-10T13:16:18.413Z,240
2019-05-10T13:17:28.097Z,250
2019-05-10T13:19:00.162Z,260
2019-05-10T13:20:10.274Z,265
2019-05-10T13:21:32.758Z,280
2019-05-10T13:22:48.508Z,285
2019-05-10T13:24:03.128Z,295
2019-05-10T13:25:12.926Z,305
2019-05-10T13:26:22.989Z,315
2019-05-10T13:27:32.716Z,325
2019-05-10T13:28:42.517Z,330
2019-05-10T13:30:00.760Z,340
2019-05-10T13:31:17.467Z,345
2019-05-10T13:32:30.489Z,350
2019-05-10T13:33:51.601Z,360
2019-05-10T13:35:01.669Z,370
2019-05-10T13:36:11.398Z,385
2019-05-10T13:37:31.983Z,385
2019-05-10T13:38:54.214Z,400
2019-05-10T13:40:13.444Z,405
2019-05-10T13:41:32.944Z,410
2019-05-10T13:42:53.271Z,420
2019-05-10T13:44:09.988Z,430
2019-05-10T13:45:19.976Z,450
2019-05-10T13:46:30.182Z,445
2019-05-10T13:47:40.170Z,460
2019-05-10T13:48:50.137Z,475
2019-05-10T13:50:00.125Z,490
2019-05-10T13:51:10.186Z,505
2019-05-10T13:52:20.170Z,510
2019-05-10T13:53:32.692Z,520
2019-05-10T13:54:45.672Z,520
2019-05-10T13:55:55.475Z,520
2019-05-10T13:57:04.948Z,515
2019-05-10T13:58:14.661Z,510
2019-05-10T13:59:27.443Z,515
2019-05-10T14:00:43.385Z,535
2019-05-10T14:01:57.276Z,565
2019-05-10T14:03:16.483Z,590
2019-05-10T14:04:33.840Z,610
2019-05-10T14:05:47.290Z,635
2019-05-10T14:06:57.267Z,660
2019-05-10T14:08:07.242Z,690
2019-05-10T14:09:20.674Z,705
2019-05-10T14:10:33.244Z,710
2019-05-10T14:11:53.984Z,710
2019-05-10T14:13:09.856Z,710
2019-05-10T14:14:31.472Z,695
2019-05-10T14:15:40.936Z,685
2019-05-10T14:16:50.673Z,680
2019-05-10T14:18:00.434Z,675
2019-05-10T14:19:15.789Z,690
2019-05-10T14:20:35.301Z,710
2019-05-10T14:21:45.327Z,720
2019-05-10T14:23:06.273Z,725
2019-05-10T14:24:22.574Z,710
2019-05-10T14:25:41.640Z,730
2019-05-10T14:26:59.777Z,775
2019-05-10T14:28:18.237Z,740
2019-05-10T14:29:41.709Z,715
2019-05-10T14:31:04.558Z,685
2019-05-10T14:32:14.278Z,735
2019-05-10T14:33:26.521Z,780
2019-05-10T14:34:43.883Z,925
2019-05-10T14:36:00.787Z,1040
2019-05-10T14:37:14.096Z,660
2019-05-10T14:38:27.658Z,535
2019-05-10T14:39:37.648Z,440
2019-05-10T14:40:47.400Z,340
2019-05-10T14:42:00.601Z,285
2019-05-10T14:43:10.075Z,270
2019-05-10T14:44:20.044Z,285
2019-05-10T14:45:29.992Z,285
2019-05-10T14:46:39.986Z,290
2019-05-10T14:47:59.195Z,330
2019-05-10T14:49:19.077Z,325
2019-05-10T14:50:35.791Z,290
2019-05-10T14:52:06.891Z,275
2019-05-10T14:53:25.436Z,275
2019-05-10T14:54:59.572Z,305
2019-05-10T14:56:17.869Z,335
2019-05-10T14:57:27.593Z,325
2019-05-10T14:58:37.569Z,385
2019-05-10T14:59:47.558Z,355
2019-05-10T15:00:57.042Z,365
2019-05-10T15:02:06.761Z,360
2019-05-10T15:03:16.722Z,320
2019-05-10T15:04:52.097Z,310
2019-05-10T15:06:08.800Z,370
2019-05-10T15:07:24.207Z,645
2019-05-10T15:08:34.183Z,660
2019-05-10T15:09:44.158Z,1815
2019-05-10T15:10:56.885Z,540
2019-05-10T15:12:10.012Z,480
2019-05-10T15:13:30.213Z,460
2019-05-10T15:14:40.162Z,720
2019-05-10T15:15:50.214Z,485
2019-05-10T15:16:59.944Z,465
2019-05-10T15:18:11.766Z,455
2019-05-10T15:19:25.399Z,450
2019-05-10T15:20:38.335Z,460
2019-05-10T15:21:47.812Z,490
2019-05-10T15:22:57.777Z,570
2019-05-10T15:24:10.801Z,1605
2019-05-10T15:25:20.849Z,780
2019-05-10T15:26:30.573Z,780
2019-05-10T15:27:40.299Z,1075
2019-05-10T15:28:52.281Z,1020
2019-05-10T15:30:10.721Z,780
2019-05-10T15:31:23.598Z,1355
2019-05-10T15:32:33.533Z,1900
2019-05-10T15:33:42.734Z,1260
2019-05-10T15:35:13.793Z,1270
2019-05-10T15:36:32.476Z,1320
2019-05-10T15:37:48.960Z,425
2019-05-10T15:39:01.715Z,360
2019-05-10T15:40:15.791Z,325
2019-05-10T15:41:31.760Z,300
2019-05-10T15:42:45.750Z,285
2019-05-10T15:44:02.469Z,305
2019-05-10T15:45:22.122Z,1230
2019-05-10T15:46:46.990Z,255
2019-05-10T15:48:07.812Z,250
2019-05-10T15:49:27.796Z,255
2019-05-10T15:52:51.553Z,210
2019-05-10T15:54:12.368Z,220
2019-05-10T15:55:34.084Z,240
2019-05-10T15:56:49.188Z,270
2019-05-10T15:58:05.226Z,325
2019-05-10T15:59:24.203Z,525
2019-05-10T16:00:46.442Z,545
2019-05-10T16:01:56.405Z,610
2019-05-10T16:03:06.416Z,700
2019-05-10T16:04:16.381Z,1090
2019-05-10T16:06:04.715Z,1760
2019-05-10T16:07:21.770Z,1890
2019-05-10T16:08:38.977Z,1900
2019-05-10T16:09:56.411Z,1955
2019-05-10T16:11:17.494Z,1905
2019-05-10T16:12:28.031Z,1780
2019-05-10T16:13:38.001Z,1800
2019-05-10T16:14:52.706Z,1740
2019-05-10T16:16:07.389Z,1695
2019-05-10T16:17:28.717Z,1550
2019-05-10T16:18:48.928Z,1790
2019-05-10T16:20:07.046Z,1745
2019-05-10T16:21:22.503Z,1660
2019-05-10T16:22:37.571Z,1260
2019-05-10T16:23:53.977Z,1625
2019-05-10T16:25:10.189Z,1590
2019-05-10T16:26:27.894Z,1680
2019-05-10T16:27:47.556Z,1660
2019-05-10T16:29:09.231Z,1555
2019-05-10T16:30:25.199Z,1565
2019-05-10T16:31:35.165Z,1545
2019-05-10T16:32:45.480Z,1525
2019-05-10T16:34:01.137Z,1420
2019-05-10T16:35:37.960Z,1465
2019-05-10T16:36:48.111Z,1380
2019-05-10T16:37:58.068Z,1400
2019-05-10T16:39:11.256Z,1380
2019-05-10T16:40:21.221Z,1390
2019-05-10T16:41:33.983Z,1385
2019-05-10T16:42:45.546Z,1400
2019-05-10T16:44:03.152Z,1425
2019-05-10T16:45:13.123Z,1465
2019-05-10T16:46:22.867Z,1430
2019-05-10T16:47:32.574Z,1410
2019-05-10T16:48:42.542Z,1405
2019-05-10T16:50:00.846Z,1460
2019-05-10T16:51:17.482Z,1365
2019-05-10T16:52:33.163Z,1275
2019-05-10T16:53:53.176Z,1295
2019-05-10T16:55:14.308Z,1235
2019-05-10T16:56:28.373Z,1225
2019-05-10T16:57:44.895Z,1250
2019-05-10T16:59:03.807Z,1300
2019-05-10T17:00:18.164Z,1255
2019-05-10T17:01:38.254Z,495
2019-05-10T17:02:51.674Z,1175
2019-05-10T17:04:09.511Z,1000
2019-05-10T17:05:25.035Z,1110
2019-05-10T17:06:40.310Z,1225
2019-05-10T17:07:53.545Z,1045
2019-05-10T17:09:03.199Z,1090
2019-05-10T17:10:13.162Z,1110
2019-05-10T17:11:22.891Z,1120
2019-05-10T17:12:37.649Z,1135
2019-05-10T17:13:51.222Z,1085
2019-05-10T17:15:10.059Z,1045
2019-05-10T17:16:24.330Z,1075
2019-05-10T17:17:44.845Z,975
2019-05-10T17:19:04.238Z,950
2019-05-10T17:20:21.213Z,960
2019-05-10T17:21:30.929Z,660
2019-05-10T17:22:40.901Z,235
2019-05-10T17:23:55.889Z,220
2019-05-10T17:25:10.815Z,205
2019-05-10T17:26:20.786Z,195
2019-05-10T17:27:30.753Z,200
2019-05-10T17:28:45.261Z,210
2019-05-10T17:29:59.420Z,210
2019-05-10T17:31:17.098Z,260
2019-05-10T17:32:31.986Z,210
2019-05-10T17:33:50.366Z,195
2019-05-10T17:35:07.358Z,195
2019-05-10T17:36:26.383Z,190
2019-05-10T17:37:43.378Z,175
2019-05-10T17:39:02.932Z,165
2019-05-10T17:40:17.610Z,170
2019-05-10T17:41:31.869Z,250
2019-05-10T17:42:51.299Z,290
2019-05-10T17:44:01.514Z,455
2019-05-10T17:45:13.451Z,465
2019-05-10T17:46:28.755Z,435
2019-05-10T17:47:41.969Z,430